createdAt,value
2023-02-06T00:01:09.105Z,117.85
2023-02-06T00:08:11.121Z,115.55
2023-02-06T00:15:13.107Z,112.13
2023-02-06T00:22:15.104Z,46.92
2023-02-06T00:29:17.060Z,57.58
2023-02-06T00:36:19.080Z,58.30
2023-02-06T00:43:24.292Z,64.13
2023-02-06T00:50:26.280Z,55.92
2023-02-06T00:57:28.264Z,51.58
2023-02-06T01:04:30.285Z,53.35
2023-02-06T01:11:32.285Z,54.10
2023-02-06T01:18:34.203Z,48.08
2023-02-06T01:25:37.289Z,57.45
2023-02-06T01:32:40.700Z,48.50
2023-02-06T01:39:42.745Z,42.17
2023-02-06T01:46:47.316Z,44.85
2023-02-06T01:53:53.249Z,61.78
2023-02-06T02:00:56.249Z,60.33
2023-02-06T02:08:02.456Z,42.42
2023-02-06T02:15:04.657Z,34.78
2023-02-06T02:22:09.514Z,41.92
2023-02-06T02:29:26.680Z,43.67
2023-02-06T02:36:38.682Z,40.92
2023-02-06T02:43:45.777Z,37.47
2023-02-06T02:50:47.740Z,49.88
2023-02-06T02:57:53.035Z,45.22
2023-02-06T03:04:58.581Z,31.75
2023-02-06T03:12:32.707Z,29.45
2023-02-06T03:19:40.074Z,36.38
2023-02-06T03:26:43.929Z,36.45
2023-02-06T03:33:56.953Z,30.35
2023-02-06T03:41:00.887Z,29.20
2023-02-06T03:48:10.726Z,36.65
2023-02-06T03:55:21.398Z,27.92
2023-02-06T04:02:26.021Z,29.75
2023-02-06T04:09:27.940Z,25.92
2023-02-06T04:16:30.183Z,40.53
2023-02-06T04:23:32.253Z,32.53
2023-02-06T04:30:34.301Z,44.38
2023-02-06T04:37:37.870Z,37.97
2023-02-06T04:44:39.852Z,29.38
2023-02-06T04:51:42.549Z,34.63
2023-02-06T04:58:45.231Z,36.25
2023-02-06T05:05:47.210Z,31.50
2023-02-06T05:12:51.167Z,46.60
2023-02-06T05:19:53.145Z,32.15
2023-02-06T05:26:58.065Z,30.23
2023-02-06T05:34:00.148Z,37.55
2023-02-06T05:41:02.240Z,38.58
2023-02-06T05:48:04.411Z,40.17
2023-02-06T05:55:07.031Z,46.70
2023-02-06T06:02:09.177Z,29.85
2023-02-06T06:09:11.345Z,56.60
2023-02-06T06:16:13.608Z,69.88
2023-02-06T06:23:15.646Z,51.55
2023-02-06T06:30:17.846Z,61.78
2023-02-06T06:37:19.887Z,43.42
2023-02-06T06:44:22.048Z,46.17
2023-02-06T06:51:24.149Z,52.00
2023-02-06T06:58:26.198Z,53.30
2023-02-06T07:05:28.374Z,58.88
2023-02-06T07:12:30.295Z,57.92
2023-02-06T07:19:32.179Z,63.08
2023-02-06T07:26:34.281Z,64.60
2023-02-06T07:33:36.491Z,76.93
2023-02-06T07:40:46.068Z,63.00
2023-02-06T07:47:48.214Z,72.57
2023-02-06T07:54:52.022Z,62.22
2023-02-06T08:01:54.112Z,64.95
2023-02-06T08:08:56.680Z,96.70
2023-02-06T09:53:45.312Z,31.25
2023-02-06T10:01:27.228Z,16.57
2023-02-06T10:08:30.465Z,11.27
2023-02-06T10:15:36.960Z,34.25
2023-02-06T10:22:57.420Z,38.90
2023-02-06T10:30:00.730Z,14.13
2023-02-06T10:37:22.354Z,8.68
2023-02-06T10:44:33.237Z,22.52
2023-02-06T10:51:44.920Z,31.13
2023-02-06T10:58:51.686Z,24.55
2023-02-06T11:05:54.186Z,35.17
2023-02-06T11:13:10.851Z,14.90
2023-02-06T11:20:23.329Z,19.83
2023-02-06T11:27:26.345Z,13.82
2023-02-06T11:35:06.839Z,29.33
2023-02-06T11:42:17.462Z,18.77
2023-02-06T11:49:19.296Z,20.52
2023-02-06T11:56:21.621Z,15.23
2023-02-06T12:03:50.923Z,14.85
2023-02-06T12:11:01.851Z,16.33
2023-02-06T12:18:07.001Z,18.55
2023-02-06T12:25:27.901Z,6.22
2023-02-06T12:32:38.232Z,14.23
2023-02-06T12:39:41.272Z,7.47
2023-02-06T12:46:45.181Z,17.48
2023-02-06T12:53:54.698Z,13.20
2023-02-06T13:08:56.661Z,9.48
2023-02-06T13:16:00.669Z,15.60
2023-02-06T13:23:14.901Z,19.05
2023-02-06T13:30:29.021Z,7.90
2023-02-06T13:37:41.696Z,6.15
2023-02-06T13:44:43.790Z,18.20
2023-02-06T13:51:46.005Z,23.73
2023-02-06T13:58:58.251Z,19.40
2023-02-06T14:06:35.669Z,17.80
2023-02-06T14:13:40.349Z,28.65
2023-02-06T14:20:57.400Z,17.98
2023-02-06T14:28:05.422Z,16.55
2023-02-06T14:35:28.730Z,33.10
2023-02-06T14:42:38.060Z,16.13
2023-02-06T14:49:40.105Z,19.55
2023-02-06T14:56:43.367Z,28.90
2023-02-06T15:03:46.986Z,20.45
2023-02-06T15:10:58.541Z,19.35
2023-02-06T15:18:03.148Z,19.63
2023-02-06T15:25:17.253Z,26.85
2023-02-06T15:32:31.501Z,27.17
2023-02-06T15:39:33.506Z,30.13
2023-02-06T15:46:37.211Z,49.25
2023-02-06T15:53:40.911Z,42.00
2023-02-06T16:00:42.930Z,46.65
2023-02-06T16:07:47.357Z,65.13
2023-02-06T16:15:00.365Z,32.60
2023-02-06T16:22:15.295Z,30.50
2023-02-06T16:29:23.742Z,38.10
2023-02-06T16:36:25.624Z,44.33
2023-02-06T16:43:28.278Z,44.35
2023-02-06T16:50:30.420Z,38.78
2023-02-06T16:57:35.886Z,41.25
2023-02-06T17:04:37.987Z,63.20
2023-02-06T17:11:40.205Z,54.25
2023-02-06T17:18:42.487Z,94.45
2023-02-06T17:25:45.558Z,59.50
2023-02-06T17:32:48.030Z,73.30
2023-02-06T17:39:51.859Z,46.17
2023-02-06T17:46:54.402Z,46.83
2023-02-06T17:53:57.744Z,32.90
2023-02-06T18:01:00.231Z,41.10
2023-02-06T18:08:02.555Z,48.78
2023-02-06T18:15:05.576Z,41.13
2023-02-06T18:22:13.448Z,38.80
2023-02-06T18:29:15.749Z,48.35
2023-02-06T18:36:20.118Z,41.15
2023-02-06T18:43:22.543Z,22.70
2023-02-06T18:50:26.457Z,43.90
2023-02-06T18:57:31.693Z,50.47
2023-02-06T19:04:36.385Z,29.17
2023-02-06T19:11:39.125Z,7.72
2023-02-06T19:18:43.853Z,22.73
2023-02-06T19:25:50.848Z,28.95
2023-02-06T19:32:54.149Z,32.88
2023-02-06T19:39:56.929Z,28.65
2023-02-06T19:47:00.851Z,27.40
2023-02-06T19:54:05.058Z,38.83
2023-02-06T20:01:14.370Z,46.78
2023-02-06T20:08:17.452Z,39.15
2023-02-06T20:15:20.365Z,37.42
2023-02-06T20:22:24.197Z,36.38
2023-02-06T20:29:33.153Z,33.35
2023-02-06T20:36:36.028Z,42.70
2023-02-06T20:43:38.904Z,38.67
2023-02-06T20:50:41.362Z,41.67
2023-02-06T20:57:44.056Z,43.53
2023-02-06T21:04:46.618Z,36.45
2023-02-06T21:11:50.377Z,32.45
2023-02-06T21:18:53.585Z,27.67
2023-02-06T21:25:56.351Z,32.33
2023-02-06T21:32:58.537Z,33.83
2023-02-06T21:40:00.758Z,28.27
2023-02-06T21:47:02.792Z,34.25
2023-02-06T21:54:05.005Z,33.45
2023-02-06T22:01:08.934Z,31.02
2023-02-06T22:08:11.056Z,21.33
2023-02-06T22:15:12.982Z,29.70
2023-02-06T22:22:15.254Z,16.65
2023-02-06T22:29:18.326Z,29.65
2023-02-06T22:36:24.226Z,20.52
2023-02-06T22:43:26.318Z,32.00
2023-02-06T22:50:28.301Z,35.40
2023-02-06T22:57:30.372Z,31.20
2023-02-06T23:04:36.400Z,22.60
2023-02-06T23:11:38.404Z,21.52
2023-02-06T23:18:40.449Z,29.42
2023-02-06T23:25:45.239Z,20.83
2023-02-06T23:32:47.395Z,27.58
2023-02-06T23:39:50.051Z,22.02
2023-02-06T23:46:52.282Z,23.30
2023-02-06T23:53:54.329Z,24.40
